createdAt,value
2023-04-13T00:01:13.065Z,1.35
2023-04-13T00:03:40.383Z,4.32
2023-04-13T00:06:10.936Z,2.72
2023-04-13T00:08:38.316Z,3.30
2023-04-13T00:11:06.572Z,3.53
2023-04-13T00:13:40.816Z,2.85
2023-04-13T00:16:09.462Z,3.00
2023-04-13T00:18:36.129Z,1.92
2023-04-13T00:21:03.402Z,2.28
2023-04-13T00:23:30.165Z,3.40
2023-04-13T00:25:56.849Z,1.85
2023-04-13T00:28:24.331Z,1.65
2023-04-13T00:30:51.590Z,1.60
2023-04-13T00:33:18.796Z,2.97
2023-04-13T00:35:45.974Z,1.88
2023-04-13T00:38:12.821Z,2.03
2023-04-13T00:40:39.531Z,1.30
2023-04-13T00:43:06.228Z,1.40
2023-04-13T00:45:39.510Z,3.25
2023-04-13T00:48:10.718Z,1.05
2023-04-13T00:50:37.977Z,1.85
2023-04-13T00:53:09.691Z,4.43
2023-04-13T00:55:39.442Z,2.40
2023-04-13T01:00:32.761Z,1.02
2023-04-13T01:03:01.729Z,2.67
2023-04-13T01:05:37.520Z,3.15
2023-04-13T01:08:19.096Z,1.85
2023-04-13T01:10:57.813Z,1.35
2023-04-13T01:16:18.079Z,1.73
2023-04-13T01:18:49.012Z,1.92
2023-04-13T01:21:19.497Z,2.22
2023-04-13T01:23:58.239Z,4.50
2023-04-13T01:26:32.044Z,1.50
2023-04-13T01:28:58.833Z,1.50
2023-04-13T01:31:25.651Z,0.93
2023-04-13T01:33:52.672Z,3.60
2023-04-13T01:36:20.301Z,1.67
2023-04-13T01:38:47.278Z,3.13
2023-04-13T01:41:13.955Z,2.03
2023-04-13T01:43:41.145Z,1.83
2023-04-13T01:46:15.526Z,2.10
2023-04-13T01:48:55.585Z,2.65
2023-04-13T01:51:24.778Z,1.65
2023-04-13T01:54:00.244Z,1.40
2023-04-13T01:56:29.449Z,1.90
2023-04-13T01:58:58.766Z,1.52
2023-04-13T02:01:25.906Z,1.50
2023-04-13T02:03:53.380Z,1.08
2023-04-13T02:06:20.827Z,2.00
2023-04-13T02:08:49.519Z,1.65
2023-04-13T02:11:19.151Z,1.63
2023-04-13T02:13:45.806Z,1.98
2023-04-13T02:16:12.517Z,1.48
2023-04-13T02:18:39.187Z,2.60
2023-04-13T02:21:11.249Z,2.15
2023-04-13T02:23:40.828Z,1.13
2023-04-13T02:26:08.708Z,1.73
2023-04-13T02:28:35.774Z,1.40
2023-04-13T02:31:05.911Z,1.63
2023-04-13T02:33:33.742Z,2.10
2023-04-13T02:36:02.588Z,1.05
2023-04-13T02:38:29.935Z,1.88
2023-04-13T02:40:59.186Z,2.72
2023-04-13T02:43:31.737Z,1.85
2023-04-13T02:45:58.489Z,4.45
2023-04-13T02:48:26.490Z,5.30
2023-04-13T02:50:54.040Z,3.50
2023-04-13T02:53:22.001Z,2.25
2023-04-13T02:55:50.505Z,6.33
2023-04-13T02:58:17.429Z,2.63
2023-04-13T03:00:44.583Z,3.80
2023-04-13T03:03:11.465Z,6.05
2023-04-13T03:05:38.954Z,3.35
2023-04-13T03:08:06.316Z,2.28
2023-04-13T03:10:33.228Z,2.30
2023-04-13T03:12:59.949Z,4.45
2023-04-13T03:15:26.767Z,2.70
2023-04-13T03:17:53.445Z,2.72
2023-04-13T03:20:21.273Z,2.97
2023-04-13T03:22:47.902Z,3.80
2023-04-13T03:25:14.558Z,4.50
2023-04-13T03:27:41.259Z,4.05
2023-04-13T03:30:08.942Z,2.47
2023-04-13T03:32:35.745Z,5.95
2023-04-13T03:35:02.497Z,3.47
2023-04-13T03:37:32.497Z,4.18
2023-04-13T03:39:59.441Z,4.22
2023-04-13T03:42:27.094Z,5.20
2023-04-13T03:44:53.835Z,7.15
2023-04-13T03:47:20.789Z,4.18
2023-04-13T03:49:47.512Z,5.88
2023-04-13T03:52:14.261Z,4.25
2023-04-13T03:54:41.037Z,4.18
2023-04-13T03:57:07.776Z,3.95
2023-04-13T03:59:34.659Z,3.45
2023-04-13T04:02:02.917Z,4.40
2023-04-13T04:04:29.887Z,6.25
2023-04-13T04:06:58.113Z,4.50
2023-04-13T04:09:25.582Z,3.97
2023-04-13T04:11:53.431Z,5.40
2023-04-13T04:14:20.481Z,5.70
2023-04-13T04:16:47.309Z,6.53
2023-04-13T04:19:14.295Z,8.63
2023-04-13T04:21:46.901Z,3.13
2023-04-13T04:24:22.914Z,5.93
2023-04-13T04:26:50.087Z,5.63
2023-04-13T04:29:21.925Z,6.40
2023-04-13T04:31:53.441Z,7.10
2023-04-13T04:34:20.798Z,6.18
2023-04-13T04:36:52.502Z,7.05
2023-04-13T04:39:23.534Z,4.13
2023-04-13T04:41:54.693Z,7.95
2023-04-13T04:44:25.035Z,5.88
2023-04-13T04:46:52.596Z,6.22
2023-04-13T04:49:21.538Z,10.70
2023-04-13T04:51:48.990Z,5.75
2023-04-13T04:54:20.143Z,4.50
2023-04-13T04:56:48.276Z,6.78
2023-04-13T04:59:15.004Z,5.82
2023-04-13T05:01:43.299Z,6.32
2023-04-13T05:04:10.694Z,4.25
2023-04-13T05:06:41.010Z,6.85
2023-04-13T05:09:08.876Z,9.20
2023-04-13T05:11:36.597Z,7.82
2023-04-13T05:14:03.419Z,6.57
2023-04-13T05:16:30.551Z,5.40
2023-04-13T05:18:57.851Z,6.90
2023-04-13T05:21:24.895Z,7.97
2023-04-13T05:23:51.919Z,9.52
2023-04-13T05:26:20.356Z,7.22
2023-04-13T05:28:47.138Z,8.90
2023-04-13T05:31:15.709Z,8.88
2023-04-13T05:33:42.491Z,9.10
2023-04-13T05:36:10.410Z,6.97
2023-04-13T05:38:37.136Z,6.57
2023-04-13T05:41:03.864Z,6.97
2023-04-13T05:43:30.564Z,7.47
2023-04-13T05:45:57.672Z,10.93
2023-04-13T05:48:24.574Z,6.70
2023-04-13T05:50:51.432Z,4.20
2023-04-13T05:53:18.370Z,5.93
2023-04-13T05:55:48.038Z,5.90
2023-04-13T05:58:15.095Z,6.22
2023-04-13T06:00:43.117Z,5.50
2023-04-13T06:03:11.015Z,6.53
2023-04-13T06:05:38.893Z,7.78
2023-04-13T06:08:05.575Z,7.97
2023-04-13T06:10:32.258Z,4.72
2023-04-13T06:12:59.160Z,7.63
2023-04-13T06:15:27.377Z,7.55
2023-04-13T06:17:54.208Z,3.30
2023-04-13T06:20:21.645Z,7.38
2023-04-13T06:22:49.103Z,7.25
2023-04-13T06:25:16.535Z,6.32
2023-04-13T06:27:44.012Z,10.18
2023-04-13T06:30:12.284Z,6.28
2023-04-13T06:32:39.413Z,5.78
2023-04-13T06:35:06.851Z,4.35
2023-04-13T06:37:35.728Z,5.32
2023-04-13T06:40:15.760Z,3.30
2023-04-13T06:42:43.573Z,2.85
2023-04-13T06:45:11.699Z,6.45
2023-04-13T06:47:42.714Z,7.22
2023-04-13T06:50:11.495Z,4.82
2023-04-13T06:55:05.830Z,9.27
2023-04-13T06:57:33.063Z,5.72
2023-04-13T07:00:00.270Z,4.05
2023-04-13T07:02:27.480Z,2.80
2023-04-13T07:04:54.407Z,3.65
2023-04-13T07:07:21.679Z,5.93
2023-04-13T07:09:48.343Z,5.43
2023-04-13T07:12:15.428Z,4.15
2023-04-13T07:14:42.597Z,5.97
2023-04-13T07:17:11.960Z,5.63
2023-04-13T07:19:43.998Z,5.82
2023-04-13T07:22:10.653Z,9.10
2023-04-13T07:24:37.451Z,6.93
2023-04-13T07:27:04.172Z,6.50
2023-04-13T07:29:31.620Z,12.75
2023-04-13T07:32:02.944Z,6.00
2023-04-13T07:34:30.416Z,9.43
2023-04-13T07:36:57.161Z,8.73
2023-04-13T07:39:23.958Z,7.03
2023-04-13T07:41:51.143Z,12.98
2023-04-13T07:44:18.903Z,10.85
2023-04-13T07:46:45.743Z,9.02
2023-04-13T07:49:12.487Z,11.63
2023-04-13T07:51:39.267Z,10.40
2023-04-13T07:54:06.193Z,14.82
2023-04-13T07:56:32.948Z,7.38
2023-04-13T07:58:59.868Z,7.10
2023-04-13T08:01:27.565Z,10.80
2023-04-13T08:03:54.481Z,8.10
2023-04-13T08:06:22.168Z,9.30
2023-04-13T08:08:49.109Z,8.13
2023-04-13T08:11:16.633Z,12.55
2023-04-13T08:13:43.296Z,13.55
2023-04-13T08:16:11.158Z,21.52
2023-04-13T08:18:38.391Z,15.77
2023-04-13T08:21:12.054Z,16.75
2023-04-13T08:23:42.638Z,14.70
2023-04-13T08:26:18.178Z,14.02
2023-04-13T08:28:45.119Z,14.77
2023-04-13T08:31:12.380Z,14.40
2023-04-13T08:33:39.149Z,10.57
2023-04-13T08:36:06.481Z,11.98
2023-04-13T08:38:35.611Z,17.90
2023-04-13T08:41:04.125Z,17.00
2023-04-13T08:43:33.909Z,11.88
2023-04-13T08:46:00.688Z,10.70
2023-04-13T08:48:29.046Z,10.68
2023-04-13T08:51:01.150Z,12.13
2023-04-13T08:53:28.939Z,18.23
2023-04-13T08:55:58.784Z,17.13
2023-04-13T08:58:27.811Z,13.85
2023-04-13T09:00:56.490Z,10.77
2023-04-13T09:03:33.803Z,8.65
2023-04-13T09:06:07.164Z,10.32
2023-04-13T09:08:37.272Z,11.93
2023-04-13T09:11:04.872Z,9.70
2023-04-13T09:13:32.020Z,9.98
2023-04-13T09:15:58.661Z,9.45
2023-04-13T09:18:25.452Z,11.25
2023-04-13T09:21:01.583Z,16.45
2023-04-13T09:23:28.541Z,9.77
2023-04-13T09:26:06.314Z,10.95
2023-04-13T09:28:33.086Z,9.97
2023-04-13T09:31:06.703Z,10.68
2023-04-13T09:33:44.531Z,12.60
2023-04-13T09:36:19.122Z,15.00
2023-04-13T09:38:55.399Z,8.70
2023-04-13T09:41:36.980Z,13.63
2023-04-13T09:44:15.890Z,11.60
2023-04-13T09:47:07.736Z,10.75
2023-04-13T09:49:38.335Z,6.72
2023-04-13T09:52:07.566Z,9.07
2023-04-13T09:54:34.800Z,15.23
2023-04-13T09:57:01.629Z,7.28
2023-04-13T09:59:29.421Z,10.48
2023-04-13T10:01:56.274Z,6.25
2023-04-13T10:04:23.771Z,11.35
2023-04-13T10:06:52.388Z,13.88
2023-04-13T10:09:20.675Z,11.68
2023-04-13T10:11:51.016Z,14.65
2023-04-13T10:14:22.935Z,9.85
2023-04-13T10:17:07.526Z,8.27
2023-04-13T10:19:43.515Z,9.35
2023-04-13T10:22:11.522Z,6.68
2023-04-13T10:24:40.076Z,9.02
2023-04-13T10:27:16.845Z,8.90
2023-04-13T10:29:44.094Z,7.93
2023-04-13T10:32:24.236Z,13.10
2023-04-13T10:34:51.278Z,9.82
2023-04-13T10:37:25.235Z,13.50
2023-04-13T10:40:06.727Z,10.25
2023-04-13T10:42:52.564Z,8.68
2023-04-13T10:45:26.091Z,12.52
2023-04-13T10:47:54.216Z,18.55
2023-04-13T10:50:23.424Z,14.98
2023-04-13T10:53:05.013Z,10.98
2023-04-13T10:55:33.070Z,13.75
2023-04-13T10:58:01.530Z,8.23
2023-04-13T11:00:44.789Z,12.10
2023-04-13T11:03:17.749Z,12.60
2023-04-13T11:05:47.154Z,8.63
2023-04-13T11:08:19.206Z,12.80
2023-04-13T11:10:54.244Z,7.63
2023-04-13T11:13:22.194Z,9.93
2023-04-13T11:15:49.783Z,10.75
2023-04-13T11:18:26.500Z,7.30
2023-04-13T11:20:53.774Z,10.18
2023-04-13T11:23:23.919Z,8.45
2023-04-13T11:26:01.227Z,10.45
2023-04-13T11:28:43.546Z,8.90
2023-04-13T11:31:11.691Z,12.98
2023-04-13T11:33:40.238Z,12.18
2023-04-13T11:38:34.761Z,13.40
2023-04-13T11:41:15.157Z,10.25
2023-04-13T11:43:46.179Z,8.48
2023-04-13T11:46:15.375Z,7.10
2023-04-13T11:48:43.489Z,9.77
2023-04-13T11:51:11.461Z,7.63
2023-04-13T11:53:39.431Z,7.95
2023-04-13T11:56:06.893Z,9.60
2023-04-13T11:58:33.722Z,9.82
2023-04-13T12:01:14.539Z,8.35
2023-04-13T12:03:57.582Z,8.20
2023-04-13T12:06:34.048Z,11.98
2023-04-13T12:09:10.991Z,8.00
2023-04-13T12:11:46.397Z,10.48
2023-04-13T12:14:46.036Z,12.65
2023-04-13T12:17:34.822Z,11.70
2023-04-13T12:20:00.832Z,14.50
2023-04-13T12:22:52.541Z,8.77
2023-04-13T12:28:00.310Z,9.05
2023-04-13T12:30:27.798Z,11.52
2023-04-13T12:32:56.178Z,9.32
2023-04-13T12:35:23.162Z,10.90
2023-04-13T12:37:52.904Z,8.30
2023-04-13T12:40:20.288Z,9.82
2023-04-13T12:42:47.729Z,11.80
2023-04-13T12:45:16.621Z,17.35
2023-04-13T12:47:43.614Z,9.40
2023-04-13T12:50:11.451Z,7.40
2023-04-13T12:52:41.226Z,9.63
2023-04-13T12:55:08.592Z,12.13
2023-04-13T12:57:35.343Z,7.63
2023-04-13T13:00:02.058Z,7.10
2023-04-13T13:02:32.440Z,9.07
2023-04-13T13:04:59.825Z,12.98
2023-04-13T13:07:27.587Z,11.85
2023-04-13T13:09:54.389Z,9.65
2023-04-13T13:12:21.292Z,15.32
2023-04-13T13:14:47.982Z,8.95
2023-04-13T13:17:14.766Z,8.32
2023-04-13T13:19:41.493Z,8.60
2023-04-13T13:22:08.252Z,6.93
2023-04-13T13:24:34.982Z,8.13
2023-04-13T13:27:37.384Z,8.55
2023-04-13T13:29:48.459Z,8.10
2023-04-13T13:32:16.799Z,6.95
2023-04-13T13:34:44.736Z,8.88
2023-04-13T13:37:12.526Z,11.40
2023-04-13T13:39:39.434Z,10.63
2023-04-13T13:42:06.153Z,10.13
2023-04-13T13:44:35.143Z,7.97
2023-04-13T13:47:04.201Z,13.73
2023-04-13T13:49:31.118Z,9.52
2023-04-13T13:51:57.892Z,8.57
2023-04-13T13:54:24.629Z,9.70
2023-04-13T13:56:51.806Z,8.68
2023-04-13T13:59:18.973Z,9.15
2023-04-13T14:01:47.008Z,9.13
2023-04-13T14:04:14.014Z,8.68
2023-04-13T14:06:40.724Z,9.25
2023-04-13T14:09:07.700Z,8.68
2023-04-13T14:11:34.547Z,8.02
2023-04-13T14:14:10.873Z,8.77
2023-04-13T14:16:45.826Z,7.45
2023-04-13T14:19:12.602Z,8.00
2023-04-13T14:21:39.290Z,5.00
2023-04-13T14:24:06.274Z,7.18
2023-04-13T14:26:36.341Z,10.40
2023-04-13T14:29:03.487Z,7.25
2023-04-13T14:31:30.787Z,5.97
2023-04-13T14:33:58.271Z,7.18
2023-04-13T14:36:25.480Z,7.07
2023-04-13T14:39:00.305Z,6.95
2023-04-13T14:41:27.643Z,7.75
2023-04-13T14:43:54.728Z,9.25
2023-04-13T14:46:22.338Z,10.43
2023-04-13T14:48:49.498Z,6.28
2023-04-13T14:51:17.330Z,8.23
2023-04-13T14:53:44.385Z,7.53
2023-04-13T14:56:11.665Z,10.60
2023-04-13T14:58:38.418Z,7.13
2023-04-13T15:01:15.564Z,8.35
2023-04-13T15:03:42.811Z,11.85
2023-04-13T15:06:10.245Z,6.53
2023-04-13T15:08:37.697Z,9.75
2023-04-13T15:11:04.819Z,7.78
2023-04-13T15:13:31.983Z,6.65
2023-04-13T15:15:59.260Z,7.15
2023-04-13T15:18:26.421Z,6.63
2023-04-13T15:20:55.062Z,9.07
2023-04-13T15:25:49.224Z,4.78
2023-04-13T15:28:17.386Z,7.82
2023-04-13T15:30:44.477Z,6.28
2023-04-13T15:33:18.588Z,7.38
2023-04-13T15:35:45.839Z,4.63
2023-04-13T15:38:12.973Z,10.13
2023-04-13T15:40:40.277Z,6.25
2023-04-13T15:43:07.441Z,9.30
2023-04-13T15:45:35.414Z,5.88
2023-04-13T15:48:03.106Z,6.95
2023-04-13T15:50:30.360Z,10.43
2023-04-13T15:52:57.483Z,12.93
2023-04-13T15:55:24.881Z,7.25
2023-04-13T15:57:53.784Z,5.53
2023-04-13T16:00:21.209Z,9.75
2023-04-13T16:02:49.576Z,9.30
2023-04-13T16:05:18.266Z,7.22
2023-04-13T16:10:16.545Z,5.63
2023-04-13T16:12:45.324Z,6.60
2023-04-13T16:15:12.712Z,7.68
2023-04-13T16:17:47.843Z,10.73
2023-04-13T16:20:15.229Z,9.93
2023-04-13T16:22:42.828Z,10.85
2023-04-13T16:25:11.427Z,7.10
2023-04-13T16:30:07.999Z,5.47
2023-04-13T16:32:35.161Z,5.35
2023-04-13T16:35:02.616Z,9.50
2023-04-13T16:37:29.717Z,7.63
2023-04-13T16:39:56.880Z,8.45
2023-04-13T16:42:23.976Z,6.20
2023-04-13T16:44:51.390Z,7.57
2023-04-13T16:47:18.955Z,7.15
2023-04-13T16:49:46.100Z,7.95
2023-04-13T16:52:13.192Z,6.72
2023-04-13T16:54:43.674Z,5.30
2023-04-13T16:57:11.878Z,7.22
2023-04-13T16:59:39.067Z,7.65
2023-04-13T17:02:09.720Z,6.78
2023-04-13T17:04:42.603Z,10.40
2023-04-13T17:07:09.706Z,7.25
2023-04-13T17:09:37.246Z,6.95
2023-04-13T17:12:04.796Z,6.28
2023-04-13T17:14:32.372Z,6.68
2023-04-13T17:16:59.483Z,12.73
2023-04-13T17:19:27.159Z,7.03
2023-04-13T17:21:54.355Z,7.25
2023-04-13T17:24:21.478Z,5.32
2023-04-13T17:26:48.719Z,5.53
2023-04-13T17:29:17.694Z,5.18
2023-04-13T17:31:44.913Z,4.13
2023-04-13T17:34:12.112Z,4.97
2023-04-13T17:36:39.292Z,6.63
2023-04-13T17:39:08.315Z,7.03
2023-04-13T17:41:36.018Z,6.18
2023-04-13T17:44:03.113Z,5.97
2023-04-13T17:46:30.401Z,5.65
2023-04-13T17:48:58.166Z,5.28
2023-04-13T17:51:25.507Z,4.85
2023-04-13T17:53:52.630Z,6.40
2023-04-13T17:56:19.989Z,5.50
2023-04-13T17:58:47.177Z,8.40
2023-04-13T18:01:14.526Z,9.60
2023-04-13T18:03:42.078Z,5.95
2023-04-13T18:06:09.422Z,6.55
2023-04-13T18:08:36.653Z,5.10
2023-04-13T18:11:03.901Z,11.65
2023-04-13T18:13:31.529Z,6.70
2023-04-13T18:15:58.900Z,6.82
2023-04-13T18:18:26.800Z,9.60
2023-04-13T18:20:53.940Z,8.07
2023-04-13T18:23:21.821Z,6.45
2023-04-13T18:25:49.622Z,6.32
2023-04-13T18:28:17.442Z,6.43
2023-04-13T18:30:45.091Z,8.30
2023-04-13T18:33:12.856Z,6.10
2023-04-13T18:35:43.636Z,9.10
2023-04-13T18:38:10.837Z,6.22
2023-04-13T18:40:39.712Z,10.43
2023-04-13T18:43:06.917Z,5.90
2023-04-13T18:45:34.369Z,4.35
2023-04-13T18:48:01.718Z,9.90
2023-04-13T18:50:29.403Z,5.05
2023-04-13T18:52:56.992Z,8.57
2023-04-13T18:55:26.594Z,8.30
2023-04-13T18:57:54.925Z,7.35
2023-04-13T19:00:22.147Z,5.85
2023-04-13T19:02:53.120Z,7.30
2023-04-13T19:05:20.588Z,5.40
2023-04-13T19:07:58.579Z,8.50
2023-04-13T19:10:26.934Z,8.05
2023-04-13T19:12:54.399Z,6.60
2023-04-13T19:15:22.147Z,5.07
2023-04-13T19:17:52.704Z,7.03
2023-04-13T19:20:22.053Z,6.32
2023-04-13T19:22:49.179Z,13.00
2023-04-13T19:25:16.704Z,8.25
2023-04-13T19:27:45.305Z,7.82
2023-04-13T19:30:16.137Z,9.73
2023-04-13T19:32:44.699Z,12.95
2023-04-13T19:35:12.702Z,9.82
2023-04-13T19:37:40.110Z,11.13
2023-04-13T19:40:13.858Z,9.10
2023-04-13T19:42:45.078Z,8.75
2023-04-13T19:45:13.335Z,8.63
2023-04-13T19:47:40.934Z,6.85
2023-04-13T19:50:10.469Z,7.07
2023-04-13T19:52:38.109Z,7.50
2023-04-13T19:55:05.203Z,7.20
2023-04-13T19:57:31.968Z,6.65
2023-04-13T19:59:58.654Z,7.63
2023-04-13T20:02:25.481Z,8.93
2023-04-13T20:04:52.470Z,5.60
2023-04-13T20:07:19.381Z,9.93
2023-04-13T20:09:47.186Z,9.23
2023-04-13T20:12:13.952Z,7.40
2023-04-13T20:14:42.234Z,4.97
2023-04-13T20:17:09.765Z,10.45
2023-04-13T20:19:36.795Z,10.45
2023-04-13T20:22:04.790Z,6.97
2023-04-13T20:24:31.855Z,8.48
2023-04-13T20:26:58.935Z,11.85
2023-04-13T20:29:27.162Z,7.03
2023-04-13T20:31:55.247Z,8.98
2023-04-13T20:34:24.102Z,7.80
2023-04-13T20:36:50.878Z,8.98
2023-04-13T20:39:25.387Z,8.15
2023-04-13T20:41:55.188Z,6.47
2023-04-13T20:44:23.714Z,15.57
2023-04-13T20:46:54.451Z,9.75
2023-04-13T20:49:23.059Z,10.85
2023-04-13T20:51:56.457Z,8.10
2023-04-13T20:54:23.566Z,40.85
2023-04-13T20:56:50.380Z,16.50
2023-04-13T20:59:18.224Z,7.45
2023-04-13T21:01:45.593Z,10.45
2023-04-13T21:04:12.474Z,12.73
2023-04-13T21:06:40.376Z,5.53
2023-04-13T21:09:08.362Z,6.22
2023-04-13T21:11:35.256Z,10.65
2023-04-13T21:14:02.332Z,7.30
2023-04-13T21:16:29.444Z,9.88
2023-04-13T21:18:57.020Z,8.52
2023-04-13T21:21:24.928Z,7.40
2023-04-13T21:23:53.022Z,5.88
2023-04-13T21:26:20.548Z,9.07
2023-04-13T21:28:47.318Z,8.13
2023-04-13T21:31:14.283Z,8.05
2023-04-13T21:33:41.381Z,7.43
2023-04-13T21:38:41.869Z,7.20
2023-04-13T21:41:19.494Z,6.78
2023-04-13T21:43:46.779Z,4.50
2023-04-13T21:46:14.776Z,11.93
2023-04-13T21:48:41.629Z,6.25
2023-04-13T21:51:09.525Z,7.60
2023-04-13T21:53:38.277Z,13.48
2023-04-13T21:58:40.682Z,6.78
2023-04-13T22:01:07.542Z,6.38
2023-04-13T22:03:38.815Z,8.25
2023-04-13T22:06:07.718Z,6.63
2023-04-13T22:11:01.756Z,5.55
2023-04-13T22:13:28.902Z,8.48
2023-04-13T22:15:55.981Z,5.95
2023-04-13T22:18:23.226Z,9.77
2023-04-13T22:20:49.889Z,9.05
2023-04-13T22:23:17.133Z,8.13
2023-04-13T22:25:52.244Z,9.52
2023-04-13T22:28:18.948Z,8.65
2023-04-13T22:30:47.230Z,6.32
2023-04-13T22:33:14.428Z,6.00
2023-04-13T22:35:41.467Z,3.25
2023-04-13T22:38:08.300Z,6.22
2023-04-13T22:40:38.220Z,8.48
2023-04-13T22:43:05.497Z,6.43
2023-04-13T22:45:32.166Z,5.72
2023-04-13T22:47:58.817Z,7.85
2023-04-13T22:50:25.710Z,5.97
2023-04-13T22:52:53.318Z,6.03
2023-04-13T22:55:20.668Z,6.47
2023-04-13T22:57:47.542Z,6.80
2023-04-13T23:00:14.647Z,6.25
2023-04-13T23:02:41.628Z,4.60
2023-04-13T23:05:08.671Z,7.63
2023-04-13T23:07:35.389Z,7.03
2023-04-13T23:10:02.118Z,7.55
2023-04-13T23:12:29.073Z,6.15
2023-04-13T23:14:55.739Z,8.43
2023-04-13T23:17:22.442Z,5.90
2023-04-13T23:19:49.124Z,7.53
2023-04-13T23:22:15.812Z,9.30
2023-04-13T23:24:42.497Z,6.18
2023-04-13T23:27:09.162Z,7.60
2023-04-13T23:29:36.823Z,7.60
2023-04-13T23:32:06.372Z,10.88
2023-04-13T23:34:33.189Z,5.05
2023-04-13T23:36:59.869Z,6.00
2023-04-13T23:39:27.457Z,4.93
2023-04-13T23:41:54.235Z,8.00
2023-04-13T23:44:21.104Z,7.53
2023-04-13T23:46:47.856Z,7.82
2023-04-13T23:49:14.626Z,6.47
2023-04-13T23:51:41.273Z,4.72
2023-04-13T23:54:07.936Z,8.23
2023-04-13T23:56:34.916Z,7.88
2023-04-13T23:59:01.920Z,6.13
